This is the latest recevied weather packets stored in our database for station/object SP1BMW-13. If no packets are shown the sender has not sent any weather packets the latest 10 day(s).
| Time | Temp. | Humidity | Pressure | Rain* | Wind** | Luminosity | Snow |
|---|---|---|---|---|---|---|---|
| 1777183968 | 7.78° C | 65% | 1021.1 hPa | 0 mm | 2.24 m/s, 277° | 167 W/m² | - |
| 1777183908 | 7.78° C | 65% | 1020.9 hPa | 0 mm | 1.79 m/s, 261° | 164 W/m² | - |
| 1777183847 | 7.78° C | 65% | 1021 hPa | 0 mm | 3.13 m/s, 317° | 162 W/m² | - |
| 1777183788 | 7.78° C | 67% | 1021 hPa | 0 mm | 2.68 m/s, 261° | 161 W/m² | - |
| 1777183734 | 7.78° C | 67% | 1020.9 hPa | 0 mm | 0.89 m/s, 274° | 159 W/m² | - |
| 1777183668 | 7.78° C | 66% | 1021 hPa | 0 mm | 2.24 m/s, 273° | 157 W/m² | - |
| 1777183608 | 7.22° C | 66% | 1020.9 hPa | 0 mm | 1.79 m/s, 333° | 154 W/m² | - |
| 1777183548 | 7.22° C | 67% | 1021 hPa | 0 mm | 2.24 m/s, 304° | 153 W/m² | - |
| 1777183488 | 7.78° C | 66% | 1020.9 hPa | 0 mm | 1.79 m/s, 307° | 151 W/m² | - |
| 1777183431 | 7.78° C | 66% | 1020.9 hPa | 0 mm | 2.24 m/s, 288° | 148 W/m² | - |
| 1777183368 | 7.22° C | 66% | 1020.9 hPa | 0 mm | 1.79 m/s, 288° | 148 W/m² | - |
| 1777183308 | 7.22° C | 68% | 1020.8 hPa | 0 mm | 1.34 m/s, 291° | 145 W/m² | - |
| 1777183248 | 7.22° C | 67% | 1020.9 hPa | 0 mm | 1.79 m/s, 301° | 143 W/m² | - |
| 1777183188 | 7.22° C | 67% | 1020.8 hPa | 0 mm | 2.24 m/s, 280° | 141 W/m² | - |
| 1777183128 | 7.22° C | 67% | 1020.9 hPa | 0 mm | 3.13 m/s, 279° | 139 W/m² | - |
| 1777183068 | 7.22° C | 70% | 1020.8 hPa | 0 mm | 0.45 m/s, 302° | 137 W/m² | - |
| 1777183008 | 7.22° C | 70% | 1020.7 hPa | 0 mm | 0.45 m/s, 286° | 134 W/m² | - |
| 1777182948 | 7.22° C | 70% | 1020.8 hPa | 0 mm | 1.34 m/s, 302° | 132 W/m² | - |
| 1777182888 | 7.22° C | 71% | 1020.7 hPa | 0 mm | 1.34 m/s, 312° | 130 W/m² | - |
| 1777182828 | 7.22° C | 71% | 1020.6 hPa | 0 mm | 0.89 m/s, 268° | 128 W/m² | - |
| 1777182768 | 7.22° C | 71% | 1020.6 hPa | 0 mm | 1.79 m/s, 284° | 126 W/m² | - |
| 1777182708 | 6.67° C | 72% | 1020.7 hPa | 0 mm | 0.89 m/s, 306° | 124 W/m² | - |
| 1777182648 | 6.67° C | 71% | 1020.7 hPa | 0 mm | 2.68 m/s, 306° | 122 W/m² | - |
| 1777182591 | 6.67° C | 71% | 1020.5 hPa | 0 mm | 1.79 m/s, 269° | 120 W/m² | - |
| 1777182534 | 6.67° C | 71% | 1020.5 hPa | 0 mm | 1.79 m/s, 312° | 118 W/m² | - |
* Rain latest hour (hover to see other rain measurements)
** Current wind speed in m/s (hover to see current wind gust speed)